< < Back
Terminal Aerodrome Forecast


Current Version              Previous Versions:   1  2  3  4  5  6  7  8  9  

Terminal Aerodrome Forecast

635
FTUS42 KTAE 281120
TAFVLD
TAF
KVLD 281120Z 2812/2912 00000KT P6SM SCT150 SCT250
     FM281500 12008KT P6SM SCT050=



Latest METAR

369
SAUS70 KWBC 281800 RRQ
MTRVLD
METAR KVLD 281753Z 06005KT 10SM FEW055 30/17 A3017 RMK AO2 SLP221
T03000167 10306 20211 58012


USA.gov is the U.S. government's official web portal to all federal, state and local government web resources and services.